sensor_id;sensor_type;location;lat;lon;timestamp;P1;durP1;ratioP1;P2;durP2;ratioP2
37069;SDS011;22984;48.862;9.320;2022-08-19T00:01:40;10.70;;;6.55;;
37069;SDS011;22984;48.862;9.320;2022-08-19T00:04:07;6.55;;;5.93;;
37069;SDS011;22984;48.862;9.320;2022-08-19T00:06:34;7.53;;;6.63;;
37069;SDS011;22984;48.862;9.320;2022-08-19T00:09:00;7.05;;;6.30;;
37069;SDS011;22984;48.862;9.320;2022-08-19T00:11:27;6.65;;;6.05;;
37069;SDS011;22984;48.862;9.320;2022-08-19T00:13:53;7.45;;;6.65;;
37069;SDS011;22984;48.862;9.320;2022-08-19T00:16:20;6.70;;;6.10;;
37069;SDS011;22984;48.862;9.320;2022-08-19T00:18:46;7.85;;;6.95;;
37069;SDS011;22984;48.862;9.320;2022-08-19T00:21:12;7.27;;;6.17;;
37069;SDS011;22984;48.862;9.320;2022-08-19T00:23:39;7.88;;;6.15;;
37069;SDS011;22984;48.862;9.320;2022-08-19T00:26:05;6.68;;;6.07;;
37069;SDS011;22984;48.862;9.320;2022-08-19T00:28:32;7.53;;;6.72;;
37069;SDS011;22984;48.862;9.320;2022-08-19T00:31:00;7.15;;;6.45;;
37069;SDS011;22984;48.862;9.320;2022-08-19T00:33:26;6.85;;;6.25;;
37069;SDS011;22984;48.862;9.320;2022-08-19T00:35:54;6.35;;;5.47;;
37069;SDS011;22984;48.862;9.320;2022-08-19T00:38:21;7.03;;;6.32;;
37069;SDS011;22984;48.862;9.320;2022-08-19T00:40:47;7.90;;;6.13;;
37069;SDS011;22984;48.862;9.320;2022-08-19T00:43:14;7.18;;;6.22;;
37069;SDS011;22984;48.862;9.320;2022-08-19T00:45:44;7.33;;;6.63;;
37069;SDS011;22984;48.862;9.320;2022-08-19T00:48:10;7.07;;;6.40;;
37069;SDS011;22984;48.862;9.320;2022-08-19T00:50:38;7.65;;;6.85;;
37069;SDS011;22984;48.862;9.320;2022-08-19T00:53:05;8.98;;;7.18;;
37069;SDS011;22984;48.862;9.320;2022-08-19T00:55:32;6.93;;;6.23;;
37069;SDS011;22984;48.862;9.320;2022-08-19T00:57:59;7.50;;;6.80;;
37069;SDS011;22984;48.862;9.320;2022-08-19T01:00:28;7.53;;;6.82;;
37069;SDS011;22984;48.862;9.320;2022-08-19T01:02:55;8.45;;;6.35;;
37069;SDS011;22984;48.862;9.320;2022-08-19T01:05:23;8.70;;;6.53;;
37069;SDS011;22984;48.862;9.320;2022-08-19T01:07:50;7.93;;;6.70;;
37069;SDS011;22984;48.862;9.320;2022-08-19T01:10:17;7.53;;;6.82;;
37069;SDS011;22984;48.862;9.320;2022-08-19T01:12:44;7.85;;;7.05;;
37069;SDS011;22984;48.862;9.320;2022-08-19T01:15:11;7.13;;;6.45;;
37069;SDS011;22984;48.862;9.320;2022-08-19T01:17:38;8.02;;;6.78;;
37069;SDS011;22984;48.862;9.320;2022-08-19T01:20:05;7.78;;;6.75;;
37069;SDS011;22984;48.862;9.320;2022-08-19T01:25:01;7.78;;;6.60;;
37069;SDS011;22984;48.862;9.320;2022-08-19T01:27:36;7.97;;;6.88;;
37069;SDS011;22984;48.862;9.320;2022-08-19T01:30:02;8.35;;;6.88;;
37069;SDS011;22984;48.862;9.320;2022-08-19T01:32:28;7.88;;;6.68;;
37069;SDS011;22984;48.862;9.320;2022-08-19T01:34:55;7.97;;;7.17;;
37069;SDS011;22984;48.862;9.320;2022-08-19T01:37:21;9.23;;;7.50;;
37069;SDS011;22984;48.862;9.320;2022-08-19T01:39:47;8.52;;;6.85;;
37069;SDS011;22984;48.862;9.320;2022-08-19T01:42:13;7.88;;;6.72;;
37069;SDS011;22984;48.862;9.320;2022-08-19T01:44:39;8.63;;;7.18;;
37069;SDS011;22984;48.862;9.320;2022-08-19T01:47:06;8.50;;;7.03;;
37069;SDS011;22984;48.862;9.320;2022-08-19T01:49:33;7.78;;;6.93;;
37069;SDS011;22984;48.862;9.320;2022-08-19T01:51:59;7.40;;;6.70;;
37069;SDS011;22984;48.862;9.320;2022-08-19T01:54:25;8.43;;;6.90;;
37069;SDS011;22984;48.862;9.320;2022-08-19T01:56:53;9.10;;;6.93;;
37069;SDS011;22984;48.862;9.320;2022-08-19T01:59:20;7.88;;;7.07;;
37069;SDS011;22984;48.862;9.320;2022-08-19T02:01:47;8.60;;;7.20;;
37069;SDS011;22984;48.862;9.320;2022-08-19T02:04:13;8.85;;;6.90;;
37069;SDS011;22984;48.862;9.320;2022-08-19T02:06:39;8.23;;;7.28;;
37069;SDS011;22984;48.862;9.320;2022-08-19T02:09:05;11.15;;;7.30;;
37069;SDS011;22984;48.862;9.320;2022-08-19T02:11:34;10.25;;;7.78;;
37069;SDS011;22984;48.862;9.320;2022-08-19T02:14:02;7.23;;;6.53;;
37069;SDS011;22984;48.862;9.320;2022-08-19T02:16:28;7.93;;;7.13;;
37069;SDS011;22984;48.862;9.320;2022-08-19T02:18:55;9.18;;;6.88;;
37069;SDS011;22984;48.862;9.320;2022-08-19T02:21:22;8.75;;;7.68;;
37069;SDS011;22984;48.862;9.320;2022-08-19T02:23:49;8.07;;;6.93;;
37069;SDS011;22984;48.862;9.320;2022-08-19T02:26:15;8.30;;;7.30;;
37069;SDS011;22984;48.862;9.320;2022-08-19T02:28:41;10.98;;;7.78;;
37069;SDS011;22984;48.862;9.320;2022-08-19T02:31:09;8.65;;;7.75;;
37069;SDS011;22984;48.862;9.320;2022-08-19T02:33:35;10.37;;;8.00;;
37069;SDS011;22984;48.862;9.320;2022-08-19T02:36:03;10.03;;;7.60;;
37069;SDS011;22984;48.862;9.320;2022-08-19T02:38:29;10.10;;;7.63;;
37069;SDS011;22984;48.862;9.320;2022-08-19T02:41:00;11.13;;;7.82;;
37069;SDS011;22984;48.862;9.320;2022-08-19T02:43:26;10.68;;;7.85;;
37069;SDS011;22984;48.862;9.320;2022-08-19T02:45:53;9.05;;;7.18;;
37069;SDS011;22984;48.862;9.320;2022-08-19T02:48:20;11.02;;;7.85;;
37069;SDS011;22984;48.862;9.320;2022-08-19T02:50:48;12.25;;;8.60;;
37069;SDS011;22984;48.862;9.320;2022-08-19T02:53:19;9.38;;;7.78;;
37069;SDS011;22984;48.862;9.320;2022-08-19T02:55:47;9.40;;;7.35;;
37069;SDS011;22984;48.862;9.320;2022-08-19T02:58:13;12.90;;;8.38;;
37069;SDS011;22984;48.862;9.320;2022-08-19T03:00:47;11.13;;;8.52;;
37069;SDS011;22984;48.862;9.320;2022-08-19T03:03:14;13.00;;;8.88;;
37069;SDS011;22984;48.862;9.320;2022-08-19T03:05:41;11.77;;;8.70;;
37069;SDS011;22984;48.862;9.320;2022-08-19T03:08:08;15.15;;;9.45;;
37069;SDS011;22984;48.862;9.320;2022-08-19T03:10:41;11.45;;;8.43;;
37069;SDS011;22984;48.862;9.320;2022-08-19T03:13:08;11.90;;;8.63;;
37069;SDS011;22984;48.862;9.320;2022-08-19T03:15:34;11.80;;;8.40;;
37069;SDS011;22984;48.862;9.320;2022-08-19T03:18:04;10.05;;;8.18;;
37069;SDS011;22984;48.862;9.320;2022-08-19T03:20:30;13.68;;;8.50;;
37069;SDS011;22984;48.862;9.320;2022-08-19T03:22:56;12.23;;;8.95;;
37069;SDS011;22984;48.862;9.320;2022-08-19T03:25:22;13.40;;;9.23;;
37069;SDS011;22984;48.862;9.320;2022-08-19T03:27:48;12.52;;;9.07;;
37069;SDS011;22984;48.862;9.320;2022-08-19T03:30:14;11.70;;;8.52;;
37069;SDS011;22984;48.862;9.320;2022-08-19T03:32:40;12.95;;;8.60;;
37069;SDS011;22984;48.862;9.320;2022-08-19T03:35:06;13.23;;;9.50;;
37069;SDS011;22984;48.862;9.320;2022-08-19T03:37:33;12.10;;;8.50;;
37069;SDS011;22984;48.862;9.320;2022-08-19T03:39:59;13.25;;;8.82;;
37069;SDS011;22984;48.862;9.320;2022-08-19T03:42:27;12.57;;;9.52;;
37069;SDS011;22984;48.862;9.320;2022-08-19T03:44:53;12.95;;;9.60;;
37069;SDS011;22984;48.862;9.320;2022-08-19T03:47:19;14.18;;;9.75;;
37069;SDS011;22984;48.862;9.320;2022-08-19T03:49:45;14.38;;;9.50;;
37069;SDS011;22984;48.862;9.320;2022-08-19T03:52:12;11.90;;;9.07;;
37069;SDS011;22984;48.862;9.320;2022-08-19T03:54:39;14.10;;;9.37;;
37069;SDS011;22984;48.862;9.320;2022-08-19T03:57:05;15.97;;;8.90;;
37069;SDS011;22984;48.862;9.320;2022-08-19T03:59:32;11.32;;;8.73;;
37069;SDS011;22984;48.862;9.320;2022-08-19T04:01:59;12.48;;;9.48;;
37069;SDS011;22984;48.862;9.320;2022-08-19T04:04:26;11.60;;;9.18;;
37069;SDS011;22984;48.862;9.320;2022-08-19T04:06:52;11.20;;;8.98;;
37069;SDS011;22984;48.862;9.320;2022-08-19T04:09:19;15.57;;;9.43;;
37069;SDS011;22984;48.862;9.320;2022-08-19T04:11:46;11.45;;;8.85;;
37069;SDS011;22984;48.862;9.320;2022-08-19T04:14:14;13.38;;;9.63;;
37069;SDS011;22984;48.862;9.320;2022-08-19T04:16:40;11.32;;;9.32;;
37069;SDS011;22984;48.862;9.320;2022-08-19T04:19:07;13.25;;;9.52;;
37069;SDS011;22984;48.862;9.320;2022-08-19T04:21:33;13.48;;;9.68;;
37069;SDS011;22984;48.862;9.320;2022-08-19T04:24:00;13.70;;;10.20;;
37069;SDS011;22984;48.862;9.320;2022-08-19T04:26:27;16.77;;;9.77;;
37069;SDS011;22984;48.862;9.320;2022-08-19T04:28:55;13.80;;;9.85;;
37069;SDS011;22984;48.862;9.320;2022-08-19T04:31:22;16.73;;;10.75;;
37069;SDS011;22984;48.862;9.320;2022-08-19T04:33:51;14.05;;;10.10;;
37069;SDS011;22984;48.862;9.320;2022-08-19T04:36:23;12.95;;;10.02;;
37069;SDS011;22984;48.862;9.320;2022-08-19T04:38:52;18.70;;;10.80;;
37069;SDS011;22984;48.862;9.320;2022-08-19T04:41:19;16.23;;;10.65;;
37069;SDS011;22984;48.862;9.320;2022-08-19T04:44:04;15.70;;;10.90;;
37069;SDS011;22984;48.862;9.320;2022-08-19T04:46:30;17.43;;;10.70;;
37069;SDS011;22984;48.862;9.320;2022-08-19T04:48:57;14.23;;;9.60;;
37069;SDS011;22984;48.862;9.320;2022-08-19T04:51:23;14.55;;;10.70;;
37069;SDS011;22984;48.862;9.320;2022-08-19T04:53:50;15.70;;;10.40;;
37069;SDS011;22984;48.862;9.320;2022-08-19T04:56:17;14.15;;;10.73;;
37069;SDS011;22984;48.862;9.320;2022-08-19T04:58:46;15.10;;;9.70;;
37069;SDS011;22984;48.862;9.320;2022-08-19T05:01:13;15.98;;;10.68;;
37069;SDS011;22984;48.862;9.320;2022-08-19T05:03:39;13.05;;;9.93;;
37069;SDS011;22984;48.862;9.320;2022-08-19T05:06:06;17.15;;;11.15;;
37069;SDS011;22984;48.862;9.320;2022-08-19T05:08:33;15.23;;;11.02;;
37069;SDS011;22984;48.862;9.320;2022-08-19T05:11:01;16.95;;;11.73;;
37069;SDS011;22984;48.862;9.320;2022-08-19T05:13:27;17.20;;;11.57;;
37069;SDS011;22984;48.862;9.320;2022-08-19T05:15:55;17.40;;;11.52;;
37069;SDS011;22984;48.862;9.320;2022-08-19T05:18:22;17.88;;;11.93;;
37069;SDS011;22984;48.862;9.320;2022-08-19T05:21:11;19.25;;;12.48;;
37069;SDS011;22984;48.862;9.320;2022-08-19T05:23:56;16.43;;;11.83;;
37069;SDS011;22984;48.862;9.320;2022-08-19T05:26:23;20.97;;;12.47;;
37069;SDS011;22984;48.862;9.320;2022-08-19T05:28:51;17.73;;;11.63;;
37069;SDS011;22984;48.862;9.320;2022-08-19T05:31:17;18.02;;;12.40;;
37069;SDS011;22984;48.862;9.320;2022-08-19T05:33:43;17.90;;;12.63;;
37069;SDS011;22984;48.862;9.320;2022-08-19T05:36:09;19.60;;;12.23;;
37069;SDS011;22984;48.862;9.320;2022-08-19T05:38:35;19.00;;;11.95;;
37069;SDS011;22984;48.862;9.320;2022-08-19T05:41:08;17.77;;;11.77;;
37069;SDS011;22984;48.862;9.320;2022-08-19T05:43:34;14.68;;;10.98;;
37069;SDS011;22984;48.862;9.320;2022-08-19T05:46:01;15.07;;;10.52;;
37069;SDS011;22984;48.862;9.320;2022-08-19T05:48:27;14.38;;;10.57;;
37069;SDS011;22984;48.862;9.320;2022-08-19T05:50:53;15.25;;;11.63;;
37069;SDS011;22984;48.862;9.320;2022-08-19T05:53:19;16.58;;;11.00;;
37069;SDS011;22984;48.862;9.320;2022-08-19T05:55:45;17.77;;;11.52;;
37069;SDS011;22984;48.862;9.320;2022-08-19T05:58:12;16.10;;;10.70;;
37069;SDS011;22984;48.862;9.320;2022-08-19T06:00:38;15.90;;;11.05;;
37069;SDS011;22984;48.862;9.320;2022-08-19T06:03:05;16.90;;;10.95;;
37069;SDS011;22984;48.862;9.320;2022-08-19T06:05:31;13.00;;;10.05;;
37069;SDS011;22984;48.862;9.320;2022-08-19T06:07:57;15.05;;;10.63;;
37069;SDS011;22984;48.862;9.320;2022-08-19T06:10:23;15.23;;;11.80;;
37069;SDS011;22984;48.862;9.320;2022-08-19T06:12:51;14.48;;;10.85;;
37069;SDS011;22984;48.862;9.320;2022-08-19T06:15:17;15.38;;;10.43;;
37069;SDS011;22984;48.862;9.320;2022-08-19T06:17:43;14.70;;;10.43;;
37069;SDS011;22984;48.862;9.320;2022-08-19T06:20:10;13.68;;;10.88;;
37069;SDS011;22984;48.862;9.320;2022-08-19T06:22:41;15.40;;;11.00;;
37069;SDS011;22984;48.862;9.320;2022-08-19T06:25:08;14.10;;;10.70;;
37069;SDS011;22984;48.862;9.320;2022-08-19T06:27:34;15.80;;;10.90;;
37069;SDS011;22984;48.862;9.320;2022-08-19T06:30:01;15.98;;;12.25;;
37069;SDS011;22984;48.862;9.320;2022-08-19T06:32:28;16.88;;;11.05;;
37069;SDS011;22984;48.862;9.320;2022-08-19T06:34:54;15.07;;;11.38;;
37069;SDS011;22984;48.862;9.320;2022-08-19T06:37:20;15.52;;;11.48;;
37069;SDS011;22984;48.862;9.320;2022-08-19T06:39:46;24.45;;;12.52;;
37069;SDS011;22984;48.862;9.320;2022-08-19T06:42:12;17.03;;;11.37;;
37069;SDS011;22984;48.862;9.320;2022-08-19T06:44:41;16.20;;;11.65;;
37069;SDS011;22984;48.862;9.320;2022-08-19T06:47:08;14.98;;;11.98;;
37069;SDS011;22984;48.862;9.320;2022-08-19T06:49:35;14.10;;;11.05;;
37069;SDS011;22984;48.862;9.320;2022-08-19T06:52:02;14.63;;;11.23;;
37069;SDS011;22984;48.862;9.320;2022-08-19T06:54:28;17.05;;;12.25;;
37069;SDS011;22984;48.862;9.320;2022-08-19T06:56:55;16.33;;;12.02;;
37069;SDS011;22984;48.862;9.320;2022-08-19T06:59:22;17.40;;;11.80;;
37069;SDS011;22984;48.862;9.320;2022-08-19T07:01:53;19.63;;;11.63;;
37069;SDS011;22984;48.862;9.320;2022-08-19T07:04:21;15.15;;;11.75;;
37069;SDS011;22984;48.862;9.320;2022-08-19T07:06:48;16.88;;;11.48;;
37069;SDS011;22984;48.862;9.320;2022-08-19T07:09:15;30.02;;;11.85;;
37069;SDS011;22984;48.862;9.320;2022-08-19T07:11:45;18.30;;;11.25;;
37069;SDS011;22984;48.862;9.320;2022-08-19T07:14:12;16.48;;;11.65;;
37069;SDS011;22984;48.862;9.320;2022-08-19T07:16:39;15.13;;;11.90;;
37069;SDS011;22984;48.862;9.320;2022-08-19T07:19:05;16.17;;;11.90;;
37069;SDS011;22984;48.862;9.320;2022-08-19T07:21:32;14.75;;;11.10;;
37069;SDS011;22984;48.862;9.320;2022-08-19T07:23:58;15.63;;;11.90;;
37069;SDS011;22984;48.862;9.320;2022-08-19T07:28:51;17.45;;;11.88;;
37069;SDS011;22984;48.862;9.320;2022-08-19T07:31:18;13.55;;;11.15;;
37069;SDS011;22984;48.862;9.320;2022-08-19T07:33:45;17.58;;;11.65;;
37069;SDS011;22984;48.862;9.320;2022-08-19T07:36:13;14.65;;;10.95;;
37069;SDS011;22984;48.862;9.320;2022-08-19T07:38:40;17.40;;;11.70;;
37069;SDS011;22984;48.862;9.320;2022-08-19T07:41:08;15.27;;;11.23;;
37069;SDS011;22984;48.862;9.320;2022-08-19T07:43:35;15.30;;;11.32;;
37069;SDS011;22984;48.862;9.320;2022-08-19T07:46:01;13.57;;;10.38;;
37069;SDS011;22984;48.862;9.320;2022-08-19T07:48:27;14.07;;;10.65;;
37069;SDS011;22984;48.862;9.320;2022-08-19T07:50:54;16.25;;;10.65;;
37069;SDS011;22984;48.862;9.320;2022-08-19T07:53:21;14.50;;;9.60;;
37069;SDS011;22984;48.862;9.320;2022-08-19T07:55:48;12.90;;;9.52;;
37069;SDS011;22984;48.862;9.320;2022-08-19T07:58:15;12.10;;;9.32;;
37069;SDS011;22984;48.862;9.320;2022-08-19T08:00:42;10.50;;;8.82;;
37069;SDS011;22984;48.862;9.320;2022-08-19T08:03:08;12.43;;;9.60;;
37069;SDS011;22984;48.862;9.320;2022-08-19T08:05:34;11.52;;;8.57;;
37069;SDS011;22984;48.862;9.320;2022-08-19T08:08:19;11.13;;;9.48;;
37069;SDS011;22984;48.862;9.320;2022-08-19T08:11:08;14.02;;;9.18;;
37069;SDS011;22984;48.862;9.320;2022-08-19T08:13:35;12.00;;;8.83;;
37069;SDS011;22984;48.862;9.320;2022-08-19T08:16:02;12.32;;;9.10;;
37069;SDS011;22984;48.862;9.320;2022-08-19T08:18:28;11.80;;;9.85;;
37069;SDS011;22984;48.862;9.320;2022-08-19T08:20:55;10.57;;;9.48;;
37069;SDS011;22984;48.862;9.320;2022-08-19T08:23:21;12.27;;;8.53;;
37069;SDS011;22984;48.862;9.320;2022-08-19T08:25:47;11.57;;;9.20;;
37069;SDS011;22984;48.862;9.320;2022-08-19T08:28:14;15.02;;;9.32;;
37069;SDS011;22984;48.862;9.320;2022-08-19T08:30:40;11.43;;;9.10;;
37069;SDS011;22984;48.862;9.320;2022-08-19T08:33:09;14.03;;;9.27;;
37069;SDS011;22984;48.862;9.320;2022-08-19T08:35:35;11.88;;;9.15;;
37069;SDS011;22984;48.862;9.320;2022-08-19T08:38:02;12.48;;;10.25;;
37069;SDS011;22984;48.862;9.320;2022-08-19T08:40:33;11.55;;;9.57;;
37069;SDS011;22984;48.862;9.320;2022-08-19T08:43:06;14.18;;;9.55;;
37069;SDS011;22984;48.862;9.320;2022-08-19T08:45:33;11.07;;;9.00;;
37069;SDS011;22984;48.862;9.320;2022-08-19T08:48:02;14.00;;;9.90;;
37069;SDS011;22984;48.862;9.320;2022-08-19T08:50:32;18.67;;;10.07;;
37069;SDS011;22984;48.862;9.320;2022-08-19T08:53:00;13.77;;;10.17;;
37069;SDS011;22984;48.862;9.320;2022-08-19T08:55:28;12.75;;;10.13;;
37069;SDS011;22984;48.862;9.320;2022-08-19T08:57:58;14.52;;;10.38;;
37069;SDS011;22984;48.862;9.320;2022-08-19T09:02:52;15.60;;;10.68;;
37069;SDS011;22984;48.862;9.320;2022-08-19T09:05:19;14.27;;;10.18;;
37069;SDS011;22984;48.862;9.320;2022-08-19T09:10:17;16.60;;;11.80;;
37069;SDS011;22984;48.862;9.320;2022-08-19T09:15:15;14.70;;;10.85;;
37069;SDS011;22984;48.862;9.320;2022-08-19T09:17:43;15.95;;;11.25;;
37069;SDS011;22984;48.862;9.320;2022-08-19T09:22:39;16.27;;;10.65;;
37069;SDS011;22984;48.862;9.320;2022-08-19T09:25:06;16.33;;;11.13;;
37069;SDS011;22984;48.862;9.320;2022-08-19T09:27:32;11.52;;;10.30;;
37069;SDS011;22984;48.862;9.320;2022-08-19T09:29:59;14.93;;;10.75;;
37069;SDS011;22984;48.862;9.320;2022-08-19T09:32:25;14.95;;;10.98;;
37069;SDS011;22984;48.862;9.320;2022-08-19T09:34:52;15.10;;;10.77;;
37069;SDS011;22984;48.862;9.320;2022-08-19T09:37:19;14.68;;;10.90;;
37069;SDS011;22984;48.862;9.320;2022-08-19T09:39:46;14.77;;;11.45;;
37069;SDS011;22984;48.862;9.320;2022-08-19T09:42:12;13.98;;;11.13;;
37069;SDS011;22984;48.862;9.320;2022-08-19T09:44:39;15.07;;;11.43;;
37069;SDS011;22984;48.862;9.320;2022-08-19T09:47:06;16.23;;;11.20;;
37069;SDS011;22984;48.862;9.320;2022-08-19T09:49:32;18.48;;;10.95;;
37069;SDS011;22984;48.862;9.320;2022-08-19T09:51:58;15.48;;;11.52;;
37069;SDS011;22984;48.862;9.320;2022-08-19T09:54:25;16.77;;;11.60;;
37069;SDS011;22984;48.862;9.320;2022-08-19T09:56:54;13.40;;;10.60;;
37069;SDS011;22984;48.862;9.320;2022-08-19T09:59:21;14.38;;;10.85;;
37069;SDS011;22984;48.862;9.320;2022-08-19T10:01:47;16.90;;;11.15;;
37069;SDS011;22984;48.862;9.320;2022-08-19T10:04:13;14.45;;;10.50;;
37069;SDS011;22984;48.862;9.320;2022-08-19T10:06:39;15.13;;;10.40;;
37069;SDS011;22984;48.862;9.320;2022-08-19T10:09:08;17.05;;;11.50;;
37069;SDS011;22984;48.862;9.320;2022-08-19T10:11:34;16.52;;;10.90;;
37069;SDS011;22984;48.862;9.320;2022-08-19T10:14:04;16.27;;;10.85;;
37069;SDS011;22984;48.862;9.320;2022-08-19T10:16:30;14.18;;;10.25;;
37069;SDS011;22984;48.862;9.320;2022-08-19T10:18:57;12.23;;;9.85;;
37069;SDS011;22984;48.862;9.320;2022-08-19T10:21:27;15.20;;;10.35;;
37069;SDS011;22984;48.862;9.320;2022-08-19T10:23:57;13.05;;;9.90;;
37069;SDS011;22984;48.862;9.320;2022-08-19T10:26:25;12.77;;;9.80;;
37069;SDS011;22984;48.862;9.320;2022-08-19T10:28:52;15.02;;;9.85;;
37069;SDS011;22984;48.862;9.320;2022-08-19T10:31:20;11.90;;;9.90;;
37069;SDS011;22984;48.862;9.320;2022-08-19T10:33:47;13.60;;;9.43;;
37069;SDS011;22984;48.862;9.320;2022-08-19T10:36:14;12.50;;;10.32;;
37069;SDS011;22984;48.862;9.320;2022-08-19T10:38:42;14.55;;;10.52;;
37069;SDS011;22984;48.862;9.320;2022-08-19T10:43:38;13.05;;;9.15;;
37069;SDS011;22984;48.862;9.320;2022-08-19T10:46:05;12.48;;;9.52;;
37069;SDS011;22984;48.862;9.320;2022-08-19T10:48:32;12.40;;;10.10;;
37069;SDS011;22984;48.862;9.320;2022-08-19T10:50:58;14.10;;;10.00;;
37069;SDS011;22984;48.862;9.320;2022-08-19T10:53:51;14.32;;;9.65;;
37069;SDS011;22984;48.862;9.320;2022-08-19T10:56:17;11.15;;;8.73;;
37069;SDS011;22984;48.862;9.320;2022-08-19T10:59:02;10.07;;;8.40;;
37069;SDS011;22984;48.862;9.320;2022-08-19T11:01:29;9.95;;;8.52;;
37069;SDS011;22984;48.862;9.320;2022-08-19T11:03:56;10.88;;;8.20;;
37069;SDS011;22984;48.862;9.320;2022-08-19T11:06:22;9.25;;;8.20;;
37069;SDS011;22984;48.862;9.320;2022-08-19T11:08:50;10.10;;;8.00;;
37069;SDS011;22984;48.862;9.320;2022-08-19T11:11:16;11.32;;;8.20;;
37069;SDS011;22984;48.862;9.320;2022-08-19T11:13:42;8.20;;;7.40;;
37069;SDS011;22984;48.862;9.320;2022-08-19T11:18:39;8.40;;;6.18;;
37069;SDS011;22984;48.862;9.320;2022-08-19T11:21:06;7.55;;;6.50;;
37069;SDS011;22984;48.862;9.320;2022-08-19T11:23:33;7.85;;;6.85;;
37069;SDS011;22984;48.862;9.320;2022-08-19T11:25:59;7.35;;;6.65;;
37069;SDS011;22984;48.862;9.320;2022-08-19T11:28:26;6.20;;;5.70;;
37069;SDS011;22984;48.862;9.320;2022-08-19T11:30:52;6.78;;;6.20;;
37069;SDS011;22984;48.862;9.320;2022-08-19T11:33:18;10.27;;;6.83;;
37069;SDS011;22984;48.862;9.320;2022-08-19T11:35:44;10.07;;;7.40;;
37069;SDS011;22984;48.862;9.320;2022-08-19T11:38:10;7.72;;;6.95;;
37069;SDS011;22984;48.862;9.320;2022-08-19T11:40:36;9.55;;;8.52;;
37069;SDS011;22984;48.862;9.320;2022-08-19T11:43:03;8.43;;;7.60;;
37069;SDS011;22984;48.862;9.320;2022-08-19T11:45:29;10.23;;;8.07;;
37069;SDS011;22984;48.862;9.320;2022-08-19T11:47:55;10.45;;;9.18;;
37069;SDS011;22984;48.862;9.320;2022-08-19T11:50:22;11.52;;;9.35;;
37069;SDS011;22984;48.862;9.320;2022-08-19T11:52:48;10.10;;;8.73;;
37069;SDS011;22984;48.862;9.320;2022-08-19T11:55:14;15.40;;;10.93;;
37069;SDS011;22984;48.862;9.320;2022-08-19T11:57:41;18.02;;;12.32;;
37069;SDS011;22984;48.862;9.320;2022-08-19T12:00:08;15.25;;;12.40;;
37069;SDS011;22984;48.862;9.320;2022-08-19T12:02:36;17.55;;;12.65;;
37069;SDS011;22984;48.862;9.320;2022-08-19T12:05:02;16.58;;;12.40;;
37069;SDS011;22984;48.862;9.320;2022-08-19T12:07:29;22.38;;;13.85;;
37069;SDS011;22984;48.862;9.320;2022-08-19T12:09:58;18.83;;;12.73;;
37069;SDS011;22984;48.862;9.320;2022-08-19T12:12:24;16.25;;;11.90;;
37069;SDS011;22984;48.862;9.320;2022-08-19T12:14:51;13.25;;;10.20;;
37069;SDS011;22984;48.862;9.320;2022-08-19T12:17:22;16.30;;;9.93;;
37069;SDS011;22984;48.862;9.320;2022-08-19T12:19:48;12.63;;;10.20;;
37069;SDS011;22984;48.862;9.320;2022-08-19T12:22:14;13.07;;;8.93;;
37069;SDS011;22984;48.862;9.320;2022-08-19T12:24:40;13.07;;;9.80;;
37069;SDS011;22984;48.862;9.320;2022-08-19T12:27:06;12.00;;;9.88;;
37069;SDS011;22984;48.862;9.320;2022-08-19T12:29:32;14.07;;;10.23;;
37069;SDS011;22984;48.862;9.320;2022-08-19T12:31:58;12.07;;;9.80;;
37069;SDS011;22984;48.862;9.320;2022-08-19T12:34:27;12.02;;;9.93;;
37069;SDS011;22984;48.862;9.320;2022-08-19T12:36:55;12.63;;;10.10;;
37069;SDS011;22984;48.862;9.320;2022-08-19T12:39:21;16.17;;;11.02;;
37069;SDS011;22984;48.862;9.320;2022-08-19T12:41:47;14.27;;;11.27;;
37069;SDS011;22984;48.862;9.320;2022-08-19T12:44:13;12.15;;;10.10;;
37069;SDS011;22984;48.862;9.320;2022-08-19T12:46:39;13.70;;;9.50;;
37069;SDS011;22984;48.862;9.320;2022-08-19T12:49:06;9.85;;;8.88;;
37069;SDS011;22984;48.862;9.320;2022-08-19T12:51:32;10.15;;;9.07;;
37069;SDS011;22984;48.862;9.320;2022-08-19T12:53:58;13.30;;;9.97;;
37069;SDS011;22984;48.862;9.320;2022-08-19T12:56:24;12.90;;;9.73;;
37069;SDS011;22984;48.862;9.320;2022-08-19T12:58:50;11.35;;;9.63;;
37069;SDS011;22984;48.862;9.320;2022-08-19T13:01:20;15.35;;;10.95;;
37069;SDS011;22984;48.862;9.320;2022-08-19T13:03:46;10.90;;;9.23;;
37069;SDS011;22984;48.862;9.320;2022-08-19T13:06:12;16.90;;;11.30;;
37069;SDS011;22984;48.862;9.320;2022-08-19T13:08:38;16.35;;;11.77;;
37069;SDS011;22984;48.862;9.320;2022-08-19T13:11:11;15.02;;;11.70;;
37069;SDS011;22984;48.862;9.320;2022-08-19T13:13:38;16.98;;;12.23;;
37069;SDS011;22984;48.862;9.320;2022-08-19T13:16:06;18.50;;;12.00;;
37069;SDS011;22984;48.862;9.320;2022-08-19T13:18:32;17.30;;;12.40;;
37069;SDS011;22984;48.862;9.320;2022-08-19T13:21:01;18.42;;;12.70;;
37069;SDS011;22984;48.862;9.320;2022-08-19T13:23:28;17.88;;;12.35;;
37069;SDS011;22984;48.862;9.320;2022-08-19T13:25:56;22.63;;;14.82;;
37069;SDS011;22984;48.862;9.320;2022-08-19T13:28:22;24.02;;;13.55;;
37069;SDS011;22984;48.862;9.320;2022-08-19T13:30:48;20.55;;;13.20;;
37069;SDS011;22984;48.862;9.320;2022-08-19T13:33:33;18.13;;;13.18;;
37069;SDS011;22984;48.862;9.320;2022-08-19T13:35:59;21.58;;;13.20;;
37069;SDS011;22984;48.862;9.320;2022-08-19T13:38:26;21.92;;;14.07;;
37069;SDS011;22984;48.862;9.320;2022-08-19T13:40:53;20.83;;;14.00;;
37069;SDS011;22984;48.862;9.320;2022-08-19T13:43:20;19.47;;;13.73;;
37069;SDS011;22984;48.862;9.320;2022-08-19T13:45:47;25.75;;;14.65;;
37069;SDS011;22984;48.862;9.320;2022-08-19T13:48:13;22.77;;;14.87;;
37069;SDS011;22984;48.862;9.320;2022-08-19T13:50:41;21.83;;;14.45;;
37069;SDS011;22984;48.862;9.320;2022-08-19T13:53:09;25.60;;;15.73;;
37069;SDS011;22984;48.862;9.320;2022-08-19T13:55:37;23.80;;;14.13;;
37069;SDS011;22984;48.862;9.320;2022-08-19T13:58:03;25.63;;;15.30;;
37069;SDS011;22984;48.862;9.320;2022-08-19T14:00:31;21.63;;;14.23;;
37069;SDS011;22984;48.862;9.320;2022-08-19T14:02:58;24.33;;;14.32;;
37069;SDS011;22984;48.862;9.320;2022-08-19T14:05:25;25.67;;;14.77;;
37069;SDS011;22984;48.862;9.320;2022-08-19T14:07:51;21.55;;;14.52;;
37069;SDS011;22984;48.862;9.320;2022-08-19T14:10:19;23.83;;;14.75;;
37069;SDS011;22984;48.862;9.320;2022-08-19T14:12:45;22.05;;;13.88;;
37069;SDS011;22984;48.862;9.320;2022-08-19T14:15:12;24.88;;;14.23;;
37069;SDS011;22984;48.862;9.320;2022-08-19T14:17:42;23.95;;;14.98;;
37069;SDS011;22984;48.862;9.320;2022-08-19T14:20:09;25.33;;;14.93;;
37069;SDS011;22984;48.862;9.320;2022-08-19T14:22:37;26.20;;;15.52;;
37069;SDS011;22984;48.862;9.320;2022-08-19T14:25:04;23.63;;;14.45;;
37069;SDS011;22984;48.862;9.320;2022-08-19T14:27:34;21.70;;;13.67;;
37069;SDS011;22984;48.862;9.320;2022-08-19T14:30:01;27.48;;;14.45;;
37069;SDS011;22984;48.862;9.320;2022-08-19T14:32:27;22.65;;;14.05;;
37069;SDS011;22984;48.862;9.320;2022-08-19T14:34:53;23.80;;;14.88;;
37069;SDS011;22984;48.862;9.320;2022-08-19T14:37:20;22.63;;;13.93;;
37069;SDS011;22984;48.862;9.320;2022-08-19T14:39:47;21.75;;;14.38;;
37069;SDS011;22984;48.862;9.320;2022-08-19T14:42:13;24.60;;;14.70;;
37069;SDS011;22984;48.862;9.320;2022-08-19T14:44:39;21.88;;;14.40;;
37069;SDS011;22984;48.862;9.320;2022-08-19T14:47:05;22.25;;;15.07;;
37069;SDS011;22984;48.862;9.320;2022-08-19T14:49:32;23.63;;;15.45;;
37069;SDS011;22984;48.862;9.320;2022-08-19T14:51:58;24.05;;;14.50;;